sensor_id;sensor_type;location;lat;lon;timestamp;temperature;humidity
20068;DHT22;10194;50.824;7.134;2022-11-28T00:01:08;7.30;99.90
20068;DHT22;10194;50.824;7.134;2022-11-28T00:03:40;7.20;99.90
20068;DHT22;10194;50.824;7.134;2022-11-28T00:06:06;7.10;99.90
20068;DHT22;10194;50.824;7.134;2022-11-28T00:08:34;7.10;99.90
20068;DHT22;10194;50.824;7.134;2022-11-28T00:11:04;7.00;99.90
20068;DHT22;10194;50.824;7.134;2022-11-28T00:13:31;7.00;99.90
20068;DHT22;10194;50.824;7.134;2022-11-28T00:15:59;6.90;99.90
20068;DHT22;10194;50.824;7.134;2022-11-28T00:18:26;6.90;99.90
20068;DHT22;10194;50.824;7.134;2022-11-28T00:21:08;6.90;99.90
20068;DHT22;10194;50.824;7.134;2022-11-28T00:23:36;6.80;99.90
20068;DHT22;10194;50.824;7.134;2022-11-28T00:26:06;6.80;99.90
20068;DHT22;10194;50.824;7.134;2022-11-28T00:28:35;6.80;99.90
20068;DHT22;10194;50.824;7.134;2022-11-28T00:31:02;6.70;99.90
20068;DHT22;10194;50.824;7.134;2022-11-28T00:33:27;6.80;99.90
20068;DHT22;10194;50.824;7.134;2022-11-28T00:35:58;6.80;99.90
20068;DHT22;10194;50.824;7.134;2022-11-28T00:38:29;6.70;99.90
20068;DHT22;10194;50.824;7.134;2022-11-28T00:41:03;6.70;99.90
20068;DHT22;10194;50.824;7.134;2022-11-28T00:43:31;6.70;99.90
20068;DHT22;10194;50.824;7.134;2022-11-28T00:45:57;6.70;99.90
20068;DHT22;10194;50.824;7.134;2022-11-28T00:48:23;6.70;99.90
20068;DHT22;10194;50.824;7.134;2022-11-28T00:50:50;6.70;99.90
20068;DHT22;10194;50.824;7.134;2022-11-28T00:53:16;6.70;99.90
20068;DHT22;10194;50.824;7.134;2022-11-28T00:55:42;6.70;99.90
20068;DHT22;10194;50.824;7.134;2022-11-28T00:58:07;6.70;99.90
20068;DHT22;10194;50.824;7.134;2022-11-28T01:00:33;6.70;99.90
20068;DHT22;10194;50.824;7.134;2022-11-28T01:02:59;6.70;99.90
20068;DHT22;10194;50.824;7.134;2022-11-28T01:05:25;6.70;99.90
20068;DHT22;10194;50.824;7.134;2022-11-28T01:07:51;6.70;99.90
20068;DHT22;10194;50.824;7.134;2022-11-28T01:10:17;6.70;99.90
20068;DHT22;10194;50.824;7.134;2022-11-28T01:12:43;6.70;99.90
20068;DHT22;10194;50.824;7.134;2022-11-28T01:15:11;6.70;99.90
20068;DHT22;10194;50.824;7.134;2022-11-28T01:17:37;6.70;99.90
20068;DHT22;10194;50.824;7.134;2022-11-28T01:20:06;6.80;99.90
20068;DHT22;10194;50.824;7.134;2022-11-28T01:22:33;6.70;99.90
20068;DHT22;10194;50.824;7.134;2022-11-28T01:24:59;6.70;99.90
20068;DHT22;10194;50.824;7.134;2022-11-28T01:27:25;6.70;99.90
20068;DHT22;10194;50.824;7.134;2022-11-28T01:29:50;6.70;99.90
20068;DHT22;10194;50.824;7.134;2022-11-28T01:32:16;6.80;99.90
20068;DHT22;10194;50.824;7.134;2022-11-28T01:34:42;6.80;99.90
20068;DHT22;10194;50.824;7.134;2022-11-28T01:37:08;6.70;99.90
20068;DHT22;10194;50.824;7.134;2022-11-28T01:39:34;6.70;99.90
20068;DHT22;10194;50.824;7.134;2022-11-28T01:42:00;6.70;99.90
20068;DHT22;10194;50.824;7.134;2022-11-28T01:46:51;6.70;99.90
20068;DHT22;10194;50.824;7.134;2022-11-28T01:49:27;6.70;99.90
20068;DHT22;10194;50.824;7.134;2022-11-28T01:52:00;6.60;99.90
20068;DHT22;10194;50.824;7.134;2022-11-28T01:54:30;6.60;99.90
20068;DHT22;10194;50.824;7.134;2022-11-28T01:57:00;6.60;99.90
20068;DHT22;10194;50.824;7.134;2022-11-28T01:59:34;6.60;99.90
20068;DHT22;10194;50.824;7.134;2022-11-28T02:02:05;6.60;99.90
20068;DHT22;10194;50.824;7.134;2022-11-28T02:04:34;6.50;99.90
20068;DHT22;10194;50.824;7.134;2022-11-28T02:07:00;6.60;99.90
20068;DHT22;10194;50.824;7.134;2022-11-28T02:09:26;6.60;99.90
20068;DHT22;10194;50.824;7.134;2022-11-28T02:12:13;6.60;99.90
20068;DHT22;10194;50.824;7.134;2022-11-28T02:35:18;6.50;99.90
20068;DHT22;10194;50.824;7.134;2022-11-28T02:44:23;6.50;99.90
20068;DHT22;10194;50.824;7.134;2022-11-28T02:47:22;6.60;99.90
20068;DHT22;10194;50.824;7.134;2022-11-28T02:50:05;6.50;99.90
20068;DHT22;10194;50.824;7.134;2022-11-28T02:52:54;6.60;99.90
20068;DHT22;10194;50.824;7.134;2022-11-28T02:55:22;6.60;99.90
20068;DHT22;10194;50.824;7.134;2022-11-28T02:57:50;6.50;99.90
20068;DHT22;10194;50.824;7.134;2022-11-28T03:00:25;6.50;99.90
20068;DHT22;10194;50.824;7.134;2022-11-28T03:06:14;6.50;99.90
20068;DHT22;10194;50.824;7.134;2022-11-28T03:09:25;6.50;99.90
20068;DHT22;10194;50.824;7.134;2022-11-28T03:23:25;6.60;99.90
20068;DHT22;10194;50.824;7.134;2022-11-28T03:26:04;6.50;99.90
20068;DHT22;10194;50.824;7.134;2022-11-28T03:28:41;6.50;99.90
20068;DHT22;10194;50.824;7.134;2022-11-28T03:31:24;6.50;99.90
20068;DHT22;10194;50.824;7.134;2022-11-28T03:33:58;6.50;99.90
20068;DHT22;10194;50.824;7.134;2022-11-28T03:36:30;6.50;99.90
20068;DHT22;10194;50.824;7.134;2022-11-28T03:39:09;6.50;99.90
20068;DHT22;10194;50.824;7.134;2022-11-28T03:41:53;6.50;99.90
20068;DHT22;10194;50.824;7.134;2022-11-28T03:44:26;6.40;99.90
20068;DHT22;10194;50.824;7.134;2022-11-28T03:46:56;6.40;99.90
20068;DHT22;10194;50.824;7.134;2022-11-28T03:49:28;6.40;99.90
20068;DHT22;10194;50.824;7.134;2022-11-28T03:51:58;6.40;99.90
20068;DHT22;10194;50.824;7.134;2022-11-28T03:54:46;6.40;99.90
20068;DHT22;10194;50.824;7.134;2022-11-28T03:57:30;6.40;99.90
20068;DHT22;10194;50.824;7.134;2022-11-28T04:00:05;6.30;99.90
20068;DHT22;10194;50.824;7.134;2022-11-28T04:02:38;6.40;99.90
20068;DHT22;10194;50.824;7.134;2022-11-28T04:10:34;6.40;99.90
20068;DHT22;10194;50.824;7.134;2022-11-28T04:16:01;6.40;99.90
20068;DHT22;10194;50.824;7.134;2022-11-28T04:24:27;6.40;99.90
20068;DHT22;10194;50.824;7.134;2022-11-28T04:27:11;6.40;99.90
20068;DHT22;10194;50.824;7.134;2022-11-28T04:29:45;6.40;99.90
20068;DHT22;10194;50.824;7.134;2022-11-28T04:32:13;6.40;99.90
20068;DHT22;10194;50.824;7.134;2022-11-28T04:34:42;6.40;99.90
20068;DHT22;10194;50.824;7.134;2022-11-28T04:37:11;6.40;99.90
20068;DHT22;10194;50.824;7.134;2022-11-28T04:39:41;6.40;99.90
20068;DHT22;10194;50.824;7.134;2022-11-28T04:42:22;6.30;99.90
20068;DHT22;10194;50.824;7.134;2022-11-28T04:45:10;6.30;99.90
20068;DHT22;10194;50.824;7.134;2022-11-28T04:47:40;6.30;99.90
20068;DHT22;10194;50.824;7.134;2022-11-28T04:50:07;6.30;99.90
20068;DHT22;10194;50.824;7.134;2022-11-28T04:52:40;6.30;99.90
20068;DHT22;10194;50.824;7.134;2022-11-28T04:55:45;6.30;99.90
20068;DHT22;10194;50.824;7.134;2022-11-28T04:58:28;6.20;99.90
20068;DHT22;10194;50.824;7.134;2022-11-28T05:00:59;6.20;99.90
20068;DHT22;10194;50.824;7.134;2022-11-28T05:03:27;6.20;99.90
20068;DHT22;10194;50.824;7.134;2022-11-28T05:05:54;6.20;99.90
20068;DHT22;10194;50.824;7.134;2022-11-28T05:08:20;6.20;99.90
20068;DHT22;10194;50.824;7.134;2022-11-28T05:10:46;6.20;99.90
20068;DHT22;10194;50.824;7.134;2022-11-28T05:13:12;6.20;99.90
20068;DHT22;10194;50.824;7.134;2022-11-28T05:15:38;6.10;99.90
20068;DHT22;10194;50.824;7.134;2022-11-28T05:18:04;6.10;99.90
20068;DHT22;10194;50.824;7.134;2022-11-28T05:20:30;6.10;99.90
20068;DHT22;10194;50.824;7.134;2022-11-28T05:22:56;6.00;99.90
20068;DHT22;10194;50.824;7.134;2022-11-28T05:25:22;6.00;99.90
20068;DHT22;10194;50.824;7.134;2022-11-28T05:27:48;6.00;99.90
20068;DHT22;10194;50.824;7.134;2022-11-28T05:30:14;6.10;99.90
20068;DHT22;10194;50.824;7.134;2022-11-28T05:32:39;6.00;99.90
20068;DHT22;10194;50.824;7.134;2022-11-28T05:35:06;6.10;99.90
20068;DHT22;10194;50.824;7.134;2022-11-28T05:37:32;6.00;99.90
20068;DHT22;10194;50.824;7.134;2022-11-28T05:39:58;6.00;99.90
20068;DHT22;10194;50.824;7.134;2022-11-28T05:42:24;6.10;99.90
20068;DHT22;10194;50.824;7.134;2022-11-28T05:44:54;6.10;99.90
20068;DHT22;10194;50.824;7.134;2022-11-28T05:47:20;6.10;99.90
20068;DHT22;10194;50.824;7.134;2022-11-28T05:49:48;6.10;99.90
20068;DHT22;10194;50.824;7.134;2022-11-28T05:52:13;6.10;99.90
20068;DHT22;10194;50.824;7.134;2022-11-28T05:54:39;6.10;99.90
20068;DHT22;10194;50.824;7.134;2022-11-28T05:57:05;6.10;99.90
20068;DHT22;10194;50.824;7.134;2022-11-28T05:59:31;6.10;99.90
20068;DHT22;10194;50.824;7.134;2022-11-28T06:01:57;6.10;99.90
20068;DHT22;10194;50.824;7.134;2022-11-28T06:04:23;6.10;99.90
20068;DHT22;10194;50.824;7.134;2022-11-28T06:06:49;6.10;99.90
20068;DHT22;10194;50.824;7.134;2022-11-28T06:09:15;6.20;99.90
20068;DHT22;10194;50.824;7.134;2022-11-28T06:11:41;6.20;99.90
20068;DHT22;10194;50.824;7.134;2022-11-28T06:14:09;6.10;99.90
20068;DHT22;10194;50.824;7.134;2022-11-28T06:16:35;6.20;99.90
20068;DHT22;10194;50.824;7.134;2022-11-28T06:19:03;6.10;99.90
20068;DHT22;10194;50.824;7.134;2022-11-28T06:21:30;6.20;99.90
20068;DHT22;10194;50.824;7.134;2022-11-28T06:23:59;6.20;99.90
20068;DHT22;10194;50.824;7.134;2022-11-28T06:26:26;6.20;99.90
20068;DHT22;10194;50.824;7.134;2022-11-28T06:28:53;6.20;99.90
20068;DHT22;10194;50.824;7.134;2022-11-28T06:31:24;6.20;99.90
20068;DHT22;10194;50.824;7.134;2022-11-28T06:33:52;6.10;99.90
20068;DHT22;10194;50.824;7.134;2022-11-28T06:36:19;6.10;99.90
20068;DHT22;10194;50.824;7.134;2022-11-28T06:38:45;6.00;99.90
20068;DHT22;10194;50.824;7.134;2022-11-28T06:41:14;6.00;99.90
20068;DHT22;10194;50.824;7.134;2022-11-28T06:43:41;6.00;99.90
20068;DHT22;10194;50.824;7.134;2022-11-28T06:46:16;6.00;99.90
20068;DHT22;10194;50.824;7.134;2022-11-28T06:48:44;5.90;99.90
20068;DHT22;10194;50.824;7.134;2022-11-28T06:51:11;5.90;99.90
20068;DHT22;10194;50.824;7.134;2022-11-28T06:53:38;5.90;99.90
20068;DHT22;10194;50.824;7.134;2022-11-28T06:56:09;5.90;99.90
20068;DHT22;10194;50.824;7.134;2022-11-28T06:58:36;5.90;99.90
20068;DHT22;10194;50.824;7.134;2022-11-28T07:01:31;5.90;99.90
20068;DHT22;10194;50.824;7.134;2022-11-28T07:03:58;5.80;99.90
20068;DHT22;10194;50.824;7.134;2022-11-28T07:06:25;5.90;99.90
20068;DHT22;10194;50.824;7.134;2022-11-28T07:08:54;5.80;99.90
20068;DHT22;10194;50.824;7.134;2022-11-28T07:11:25;5.90;99.90
20068;DHT22;10194;50.824;7.134;2022-11-28T07:13:53;5.90;99.90
20068;DHT22;10194;50.824;7.134;2022-11-28T07:16:20;5.90;99.90
20068;DHT22;10194;50.824;7.134;2022-11-28T07:18:48;5.90;99.90
20068;DHT22;10194;50.824;7.134;2022-11-28T07:21:15;5.90;99.90
20068;DHT22;10194;50.824;7.134;2022-11-28T07:23:41;6.00;99.90
20068;DHT22;10194;50.824;7.134;2022-11-28T07:26:10;6.00;99.90
20068;DHT22;10194;50.824;7.134;2022-11-28T07:28:37;6.00;99.90
20068;DHT22;10194;50.824;7.134;2022-11-28T07:31:14;6.00;99.90
20068;DHT22;10194;50.824;7.134;2022-11-28T07:33:43;6.00;99.90
20068;DHT22;10194;50.824;7.134;2022-11-28T07:36:16;6.00;99.90
20068;DHT22;10194;50.824;7.134;2022-11-28T07:38:48;6.10;99.90
20068;DHT22;10194;50.824;7.134;2022-11-28T07:41:15;6.00;99.90
20068;DHT22;10194;50.824;7.134;2022-11-28T07:43:42;6.10;99.90
20068;DHT22;10194;50.824;7.134;2022-11-28T07:46:13;6.00;99.90
20068;DHT22;10194;50.824;7.134;2022-11-28T07:48:43;6.00;99.90
20068;DHT22;10194;50.824;7.134;2022-11-28T07:51:16;6.00;99.90
20068;DHT22;10194;50.824;7.134;2022-11-28T07:53:46;6.00;99.90
20068;DHT22;10194;50.824;7.134;2022-11-28T07:56:14;6.00;99.90
20068;DHT22;10194;50.824;7.134;2022-11-28T07:58:43;6.00;99.90
20068;DHT22;10194;50.824;7.134;2022-11-28T08:01:15;6.00;99.90
20068;DHT22;10194;50.824;7.134;2022-11-28T08:03:43;6.00;99.90
20068;DHT22;10194;50.824;7.134;2022-11-28T08:06:09;6.10;99.90
20068;DHT22;10194;50.824;7.134;2022-11-28T08:08:36;6.10;99.90
20068;DHT22;10194;50.824;7.134;2022-11-28T08:11:04;6.10;99.90
20068;DHT22;10194;50.824;7.134;2022-11-28T08:13:31;6.10;99.90
20068;DHT22;10194;50.824;7.134;2022-11-28T08:15:58;6.10;99.90
20068;DHT22;10194;50.824;7.134;2022-11-28T08:18:28;6.10;99.90
20068;DHT22;10194;50.824;7.134;2022-11-28T08:21:05;6.10;99.90
20068;DHT22;10194;50.824;7.134;2022-11-28T08:23:33;6.10;99.90
20068;DHT22;10194;50.824;7.134;2022-11-28T08:26:03;6.20;99.90
20068;DHT22;10194;50.824;7.134;2022-11-28T08:28:29;6.20;99.90
20068;DHT22;10194;50.824;7.134;2022-11-28T08:30:56;6.20;99.90
20068;DHT22;10194;50.824;7.134;2022-11-28T08:33:24;6.20;99.90
20068;DHT22;10194;50.824;7.134;2022-11-28T08:35:53;6.20;99.90
20068;DHT22;10194;50.824;7.134;2022-11-28T08:38:18;6.30;99.90
20068;DHT22;10194;50.824;7.134;2022-11-28T08:40:44;6.20;99.90
20068;DHT22;10194;50.824;7.134;2022-11-28T08:43:10;6.30;99.90
20068;DHT22;10194;50.824;7.134;2022-11-28T08:45:36;6.20;99.90
20068;DHT22;10194;50.824;7.134;2022-11-28T08:48:03;6.20;99.90
20068;DHT22;10194;50.824;7.134;2022-11-28T08:50:29;6.20;99.90
20068;DHT22;10194;50.824;7.134;2022-11-28T08:52:55;6.30;99.90
20068;DHT22;10194;50.824;7.134;2022-11-28T08:55:20;6.30;99.90
20068;DHT22;10194;50.824;7.134;2022-11-28T08:57:46;6.30;99.90
20068;DHT22;10194;50.824;7.134;2022-11-28T09:00:12;6.20;99.90
20068;DHT22;10194;50.824;7.134;2022-11-28T09:02:39;6.20;99.90
20068;DHT22;10194;50.824;7.134;2022-11-28T09:05:05;6.30;99.90
20068;DHT22;10194;50.824;7.134;2022-11-28T09:07:31;6.40;99.90
20068;DHT22;10194;50.824;7.134;2022-11-28T09:09:56;6.40;99.90
20068;DHT22;10194;50.824;7.134;2022-11-28T09:12:22;6.40;99.90
20068;DHT22;10194;50.824;7.134;2022-11-28T09:14:48;6.50;99.90
20068;DHT22;10194;50.824;7.134;2022-11-28T09:17:14;6.40;99.90
20068;DHT22;10194;50.824;7.134;2022-11-28T09:19:40;6.50;99.90
20068;DHT22;10194;50.824;7.134;2022-11-28T09:22:07;6.50;99.90
20068;DHT22;10194;50.824;7.134;2022-11-28T09:24:32;6.60;99.90
20068;DHT22;10194;50.824;7.134;2022-11-28T09:26:58;6.60;99.90
20068;DHT22;10194;50.824;7.134;2022-11-28T09:29:25;6.50;99.90
20068;DHT22;10194;50.824;7.134;2022-11-28T09:31:51;6.50;99.90
20068;DHT22;10194;50.824;7.134;2022-11-28T09:34:16;6.60;99.90
20068;DHT22;10194;50.824;7.134;2022-11-28T09:36:43;6.60;99.90
20068;DHT22;10194;50.824;7.134;2022-11-28T09:39:08;6.60;99.90
20068;DHT22;10194;50.824;7.134;2022-11-28T09:44:35;6.60;99.90
20068;DHT22;10194;50.824;7.134;2022-11-28T09:47:20;6.60;99.90
20068;DHT22;10194;50.824;7.134;2022-11-28T09:49:54;6.60;99.90
20068;DHT22;10194;50.824;7.134;2022-11-28T09:52:51;6.60;99.90
20068;DHT22;10194;50.824;7.134;2022-11-28T09:55:33;6.50;99.90
20068;DHT22;10194;50.824;7.134;2022-11-28T09:58:13;6.60;99.90
20068;DHT22;10194;50.824;7.134;2022-11-28T10:04:05;6.60;99.90
20068;DHT22;10194;50.824;7.134;2022-11-28T10:06:46;6.60;99.90
20068;DHT22;10194;50.824;7.134;2022-11-28T10:18:09;6.80;99.90
20068;DHT22;10194;50.824;7.134;2022-11-28T10:20:57;6.80;99.90
20068;DHT22;10194;50.824;7.134;2022-11-28T10:23:44;6.80;99.90
20068;DHT22;10194;50.824;7.134;2022-11-28T10:26:39;6.80;99.90
20068;DHT22;10194;50.824;7.134;2022-11-28T10:32:18;6.90;99.90
20068;DHT22;10194;50.824;7.134;2022-11-28T10:35:03;6.80;99.90
20068;DHT22;10194;50.824;7.134;2022-11-28T10:37:58;6.90;99.90
20068;DHT22;10194;50.824;7.134;2022-11-28T10:43:39;6.90;99.90
20068;DHT22;10194;50.824;7.134;2022-11-28T10:46:42;7.00;99.90
20068;DHT22;10194;50.824;7.134;2022-11-28T10:52:39;7.00;99.90
20068;DHT22;10194;50.824;7.134;2022-11-28T10:55:45;7.00;99.90
20068;DHT22;10194;50.824;7.134;2022-11-28T10:58:31;7.10;99.90
20068;DHT22;10194;50.824;7.134;2022-11-28T11:01:01;7.20;99.90
20068;DHT22;10194;50.824;7.134;2022-11-28T11:03:30;7.20;99.90
20068;DHT22;10194;50.824;7.134;2022-11-28T11:05:58;7.20;99.90
20068;DHT22;10194;50.824;7.134;2022-11-28T11:08:26;7.20;99.90
20068;DHT22;10194;50.824;7.134;2022-11-28T11:10:58;7.20;99.90
20068;DHT22;10194;50.824;7.134;2022-11-28T11:13:33;7.20;99.90
20068;DHT22;10194;50.824;7.134;2022-11-28T11:16:06;7.20;99.90
20068;DHT22;10194;50.824;7.134;2022-11-28T11:21:19;7.30;99.90
20068;DHT22;10194;50.824;7.134;2022-11-28T11:23:45;7.20;99.90
20068;DHT22;10194;50.824;7.134;2022-11-28T11:26:24;7.30;99.90
20068;DHT22;10194;50.824;7.134;2022-11-28T11:28:54;7.30;99.90
20068;DHT22;10194;50.824;7.134;2022-11-28T11:31:32;7.30;99.90
20068;DHT22;10194;50.824;7.134;2022-11-28T11:34:14;7.40;99.90
20068;DHT22;10194;50.824;7.134;2022-11-28T11:36:41;7.40;99.90
20068;DHT22;10194;50.824;7.134;2022-11-28T11:41:47;7.40;99.90
20068;DHT22;10194;50.824;7.134;2022-11-28T11:46:53;7.40;99.90
20068;DHT22;10194;50.824;7.134;2022-11-28T11:49:35;7.40;99.90
20068;DHT22;10194;50.824;7.134;2022-11-28T11:52:05;7.40;99.90
20068;DHT22;10194;50.824;7.134;2022-11-28T11:54:31;7.60;99.90
20068;DHT22;10194;50.824;7.134;2022-11-28T11:56:57;7.60;99.90
20068;DHT22;10194;50.824;7.134;2022-11-28T12:01:59;7.50;99.90
20068;DHT22;10194;50.824;7.134;2022-11-28T12:04:31;7.50;99.90
20068;DHT22;10194;50.824;7.134;2022-11-28T12:07:01;7.60;99.90
20068;DHT22;10194;50.824;7.134;2022-11-28T12:09:35;7.50;99.90
20068;DHT22;10194;50.824;7.134;2022-11-28T12:12:12;7.60;99.90
20068;DHT22;10194;50.824;7.134;2022-11-28T12:14:46;7.50;99.90
20068;DHT22;10194;50.824;7.134;2022-11-28T12:21:22;7.40;99.90
20068;DHT22;10194;50.824;7.134;2022-11-28T12:32:34;7.40;99.90
20068;DHT22;10194;50.824;7.134;2022-11-28T12:35:26;7.50;99.90
20068;DHT22;10194;50.824;7.134;2022-11-28T12:47:35;7.50;99.90
20068;DHT22;10194;50.824;7.134;2022-11-28T12:52:57;7.60;99.90
20068;DHT22;10194;50.824;7.134;2022-11-28T12:58:45;7.70;99.90
20068;DHT22;10194;50.824;7.134;2022-11-28T13:01:52;7.70;99.90
20068;DHT22;10194;50.824;7.134;2022-11-28T13:04:44;7.70;99.90
20068;DHT22;10194;50.824;7.134;2022-11-28T13:10:41;7.90;99.90
20068;DHT22;10194;50.824;7.134;2022-11-28T13:13:09;7.80;99.90
20068;DHT22;10194;50.824;7.134;2022-11-28T13:18:36;7.80;99.90
20068;DHT22;10194;50.824;7.134;2022-11-28T13:27:23;8.00;99.90
20068;DHT22;10194;50.824;7.134;2022-11-28T13:35:32;7.80;99.90
20068;DHT22;10194;50.824;7.134;2022-11-28T13:38:12;7.90;99.90
20068;DHT22;10194;50.824;7.134;2022-11-28T13:40:52;7.90;99.90
20068;DHT22;10194;50.824;7.134;2022-11-28T13:43:50;7.90;99.90
20068;DHT22;10194;50.824;7.134;2022-11-28T13:46:17;8.00;99.90
20068;DHT22;10194;50.824;7.134;2022-11-28T13:53:38;8.10;99.90
20068;DHT22;10194;50.824;7.134;2022-11-28T13:58:56;8.00;99.90
20068;DHT22;10194;50.824;7.134;2022-11-28T14:01:30;8.10;99.90
20068;DHT22;10194;50.824;7.134;2022-11-28T14:04:17;8.10;99.90
20068;DHT22;10194;50.824;7.134;2022-11-28T14:06:48;8.10;99.90
20068;DHT22;10194;50.824;7.134;2022-11-28T14:09:27;8.10;99.90
20068;DHT22;10194;50.824;7.134;2022-11-28T14:25:48;8.10;99.90
20068;DHT22;10194;50.824;7.134;2022-11-28T14:28:18;8.10;99.90
20068;DHT22;10194;50.824;7.134;2022-11-28T14:30:59;8.10;99.90
20068;DHT22;10194;50.824;7.134;2022-11-28T14:36:01;8.00;99.90
20068;DHT22;10194;50.824;7.134;2022-11-28T14:43:32;8.10;99.90
20068;DHT22;10194;50.824;7.134;2022-11-28T14:46:18;8.10;99.90
20068;DHT22;10194;50.824;7.134;2022-11-28T14:57:00;8.10;99.90
20068;DHT22;10194;50.824;7.134;2022-11-28T14:59:35;8.10;99.90
20068;DHT22;10194;50.824;7.134;2022-11-28T15:16:22;8.00;99.90
20068;DHT22;10194;50.824;7.134;2022-11-28T15:18:51;8.00;99.90
20068;DHT22;10194;50.824;7.134;2022-11-28T15:21:20;8.00;99.90
20068;DHT22;10194;50.824;7.134;2022-11-28T15:23:47;8.00;99.90
20068;DHT22;10194;50.824;7.134;2022-11-28T15:26:27;8.00;99.90
20068;DHT22;10194;50.824;7.134;2022-11-28T15:29:19;8.00;99.90
20068;DHT22;10194;50.824;7.134;2022-11-28T15:31:51;7.90;99.90
20068;DHT22;10194;50.824;7.134;2022-11-28T15:34:30;7.90;99.90
20068;DHT22;10194;50.824;7.134;2022-11-28T15:37:05;7.90;99.90
20068;DHT22;10194;50.824;7.134;2022-11-28T15:39:40;7.90;99.90
20068;DHT22;10194;50.824;7.134;2022-11-28T15:42:24;7.90;99.90
20068;DHT22;10194;50.824;7.134;2022-11-28T15:45:31;7.90;99.90
20068;DHT22;10194;50.824;7.134;2022-11-28T15:48:02;7.90;99.90
20068;DHT22;10194;50.824;7.134;2022-11-28T15:50:32;7.80;99.90
20068;DHT22;10194;50.824;7.134;2022-11-28T15:53:15;7.90;99.90
20068;DHT22;10194;50.824;7.134;2022-11-28T15:55:42;7.90;99.90
20068;DHT22;10194;50.824;7.134;2022-11-28T15:58:21;7.90;99.90
20068;DHT22;10194;50.824;7.134;2022-11-28T16:00:55;7.90;99.90
20068;DHT22;10194;50.824;7.134;2022-11-28T16:03:24;7.90;99.90
20068;DHT22;10194;50.824;7.134;2022-11-28T16:05:53;7.90;99.90
20068;DHT22;10194;50.824;7.134;2022-11-28T16:08:34;8.00;99.90
20068;DHT22;10194;50.824;7.134;2022-11-28T16:11:06;7.90;99.90
20068;DHT22;10194;50.824;7.134;2022-11-28T16:13:34;7.90;99.90
20068;DHT22;10194;50.824;7.134;2022-11-28T16:16:09;7.90;99.90
20068;DHT22;10194;50.824;7.134;2022-11-28T16:18:36;7.90;99.90
20068;DHT22;10194;50.824;7.134;2022-11-28T16:21:02;7.90;99.90
20068;DHT22;10194;50.824;7.134;2022-11-28T16:23:33;7.90;99.90
20068;DHT22;10194;50.824;7.134;2022-11-28T16:28:36;7.90;99.90
20068;DHT22;10194;50.824;7.134;2022-11-28T16:31:11;7.90;99.90
20068;DHT22;10194;50.824;7.134;2022-11-28T16:33:43;7.90;99.90
20068;DHT22;10194;50.824;7.134;2022-11-28T16:36:36;7.90;99.90
20068;DHT22;10194;50.824;7.134;2022-11-28T16:41:46;7.90;99.90
20068;DHT22;10194;50.824;7.134;2022-11-28T16:44:18;7.90;99.90
20068;DHT22;10194;50.824;7.134;2022-11-28T16:46:55;7.90;99.90
20068;DHT22;10194;50.824;7.134;2022-11-28T16:49:38;7.90;99.90
20068;DHT22;10194;50.824;7.134;2022-11-28T16:54:54;7.90;99.90
20068;DHT22;10194;50.824;7.134;2022-11-28T16:57:21;8.00;99.90
20068;DHT22;10194;50.824;7.134;2022-11-28T16:59:48;8.00;99.90
20068;DHT22;10194;50.824;7.134;2022-11-28T17:02:18;7.90;99.90
20068;DHT22;10194;50.824;7.134;2022-11-28T17:04:49;7.90;99.90
20068;DHT22;10194;50.824;7.134;2022-11-28T17:07:18;8.00;99.90
20068;DHT22;10194;50.824;7.134;2022-11-28T17:09:46;8.00;99.90
20068;DHT22;10194;50.824;7.134;2022-11-28T17:12:31;8.00;99.90
20068;DHT22;10194;50.824;7.134;2022-11-28T17:15:05;8.00;99.90
20068;DHT22;10194;50.824;7.134;2022-11-28T17:17:33;8.00;99.90
20068;DHT22;10194;50.824;7.134;2022-11-28T17:20:00;8.00;99.90
20068;DHT22;10194;50.824;7.134;2022-11-28T17:22:38;8.00;99.90
20068;DHT22;10194;50.824;7.134;2022-11-28T17:25:16;8.00;99.90
20068;DHT22;10194;50.824;7.134;2022-11-28T17:27:44;8.00;99.90
20068;DHT22;10194;50.824;7.134;2022-11-28T17:30:17;8.00;99.90
20068;DHT22;10194;50.824;7.134;2022-11-28T17:32:46;8.00;99.90
20068;DHT22;10194;50.824;7.134;2022-11-28T17:35:19;8.00;99.90
20068;DHT22;10194;50.824;7.134;2022-11-28T17:37:47;8.00;99.90
20068;DHT22;10194;50.824;7.134;2022-11-28T17:40:13;8.00;99.90
20068;DHT22;10194;50.824;7.134;2022-11-28T17:42:57;8.00;99.90
20068;DHT22;10194;50.824;7.134;2022-11-28T17:45:24;8.00;99.90
20068;DHT22;10194;50.824;7.134;2022-11-28T17:47:51;8.00;99.90
20068;DHT22;10194;50.824;7.134;2022-11-28T17:50:17;8.00;99.90
20068;DHT22;10194;50.824;7.134;2022-11-28T17:52:43;8.00;99.90
20068;DHT22;10194;50.824;7.134;2022-11-28T17:55:09;8.00;99.90
20068;DHT22;10194;50.824;7.134;2022-11-28T17:57:35;8.00;99.90
20068;DHT22;10194;50.824;7.134;2022-11-28T18:00:05;8.00;99.90
20068;DHT22;10194;50.824;7.134;2022-11-28T18:02:32;7.90;99.90
20068;DHT22;10194;50.824;7.134;2022-11-28T18:04:58;7.90;99.90
20068;DHT22;10194;50.824;7.134;2022-11-28T18:07:25;7.90;99.90
20068;DHT22;10194;50.824;7.134;2022-11-28T18:09:50;7.90;99.90
20068;DHT22;10194;50.824;7.134;2022-11-28T18:12:16;7.80;99.90
20068;DHT22;10194;50.824;7.134;2022-11-28T18:14:42;7.90;99.90
20068;DHT22;10194;50.824;7.134;2022-11-28T18:17:08;7.90;99.90
20068;DHT22;10194;50.824;7.134;2022-11-28T18:19:34;7.90;99.90
20068;DHT22;10194;50.824;7.134;2022-11-28T18:21:59;7.90;99.90
20068;DHT22;10194;50.824;7.134;2022-11-28T18:24:25;7.90;99.90
20068;DHT22;10194;50.824;7.134;2022-11-28T18:26:51;7.90;99.90
20068;DHT22;10194;50.824;7.134;2022-11-28T18:29:17;7.90;99.90
20068;DHT22;10194;50.824;7.134;2022-11-28T18:31:43;7.90;99.90
20068;DHT22;10194;50.824;7.134;2022-11-28T18:34:09;7.90;99.90
20068;DHT22;10194;50.824;7.134;2022-11-28T18:36:36;7.90;99.90
20068;DHT22;10194;50.824;7.134;2022-11-28T18:39:10;7.90;99.90
20068;DHT22;10194;50.824;7.134;2022-11-28T18:41:38;7.90;99.90
20068;DHT22;10194;50.824;7.134;2022-11-28T18:44:05;7.90;99.90
20068;DHT22;10194;50.824;7.134;2022-11-28T18:46:33;7.90;99.90
20068;DHT22;10194;50.824;7.134;2022-11-28T18:49:00;7.80;99.90
20068;DHT22;10194;50.824;7.134;2022-11-28T18:51:33;7.80;99.90
20068;DHT22;10194;50.824;7.134;2022-11-28T18:54:02;7.80;99.90
20068;DHT22;10194;50.824;7.134;2022-11-28T18:56:29;7.80;99.90
20068;DHT22;10194;50.824;7.134;2022-11-28T18:58:55;7.80;99.90
20068;DHT22;10194;50.824;7.134;2022-11-28T19:01:27;7.70;99.90
20068;DHT22;10194;50.824;7.134;2022-11-28T19:04:06;7.70;99.90
20068;DHT22;10194;50.824;7.134;2022-11-28T19:06:35;7.70;99.90
20068;DHT22;10194;50.824;7.134;2022-11-28T19:09:05;7.70;99.90
20068;DHT22;10194;50.824;7.134;2022-11-28T19:11:34;7.60;99.90
20068;DHT22;10194;50.824;7.134;2022-11-28T19:14:00;7.60;99.90
20068;DHT22;10194;50.824;7.134;2022-11-28T19:16:29;7.80;99.90
20068;DHT22;10194;50.824;7.134;2022-11-28T19:18:56;7.70;99.90
20068;DHT22;10194;50.824;7.134;2022-11-28T19:21:28;7.60;99.90
20068;DHT22;10194;50.824;7.134;2022-11-28T19:23:56;7.60;99.90
20068;DHT22;10194;50.824;7.134;2022-11-28T19:26:24;7.70;99.90
20068;DHT22;10194;50.824;7.134;2022-11-28T19:28:51;7.60;99.90
20068;DHT22;10194;50.824;7.134;2022-11-28T19:31:23;7.60;99.90